Ivan Papanin — UCJE — position and weather

sailwx.info

Track history (hours):
 
Tides and Currents Weather Stations Pressure Air Temp Water Temp Dewpoint Dewpoint Depression Visibility Wind Speed Wind Dir Waves Ship Positions

Ivan Papanin

Last reported at 2016-Dec-01 06:11 UTC. Time now 2016-Dec-08 06:01 UTC.
Position N 13°46' W 017°45'.

Length 166 m; beam 22 m.

Type: Cargo ship. MMSI: 273137200.

Date/timePositionNaut miles runAvg speedWind from/ knotsBaromVisibWave heightAir tempDewpointWater temp
2016-Dec-01 06:11N 13°46' W 017°45'914.4
2016-Dec-01 05:34N 13°55' W 017°45'2914.4
2016-Dec-01 03:31N 14°24' W 017°46'4514.2
2016-Dec-01 00:20N 15°09' W 017°45'1114.4
2016-Nov-30 23:33N 15°21' W 017°45'  
2016-Nov-28 19:06N 27°37' W 015°12'815.1
2016-Nov-28 18:33N 27°45' W 015°09'1514.8
2016-Nov-28 17:33N 27°59' W 015°04'1514.6
2016-Nov-28 16:33N 28°13' W 014°58'1414.5
2016-Nov-28 15:33N 28°27' W 014°53'1514.6
2016-Nov-28 14:33N 28°41' W 014°49'  
2016-Nov-24 11:33N 49°46' W 003°53'1515.3
2016-Nov-24 10:34N 49°51' W 003°30'1615.6
2016-Nov-24 09:33N 49°56' W 003°07'1616.0
2016-Nov-24 08:32N 50°00' W 002°43'3015.2
2016-Nov-24 06:33N 50°09' W 001°58'1413.8
2016-Nov-24 05:33N 50°13' W 001°37'1313.3
2016-Nov-24 04:33N 50°17' W 001°17'2813.4
2016-Nov-24 02:26N 50°25' W 000°35'1314.4
2016-Nov-24 01:31N 50°29' W 000°15'1415.2
2016-Nov-24 00:33N 50°33' E 000°07'2015.5
2016-Nov-23 23:18N 50°39' E 000°36'2714.9
2016-Nov-23 21:27N 50°55' E 001°11'1213.7
2016-Nov-23 20:34N 51°03' E 001°26'1313.1
2016-Nov-23 19:33N 51°12' E 001°42'1313.5
2016-Nov-23 18:34N 51°23' E 001°54'1514.7
2016-Nov-23 17:33N 51°34' E 002°09'1615.4
2016-Nov-23 16:32N 51°46' E 002°26'4915.0
2016-Nov-23 13:18N 52°24' E 003°16'2313.5
2016-Nov-23 11:33N 52°43' E 003°38'1312.8
2016-Nov-23 10:32N 52°53' E 003°51'1312.8
2016-Nov-23 09:33N 53°01' E 004°07'1313.5
2016-Nov-23 08:33N 53°10' E 004°24'1414.1
2016-Nov-23 07:32N 53°23' E 004°32'1414.2
2016-Nov-23 06:34N 53°37' E 004°40'4013.2
2016-Nov-23 03:33N 54°14' E 005°05'1212.5
2016-Nov-23 02:33N 54°24' E 005°16'13711.0
2016-Nov-22 14:05N 56°25' E 007°13'611.6
2016-Nov-22 13:32N 56°30' E 007°19'3311.1
2016-Nov-22 10:32N 56°59' E 007°49'1111.0
2016-Nov-22 09:32N 57°09' E 007°59'1212.1
2016-Nov-22 08:33N 57°15' E 008°18'6913.3
2016-Nov-22 03:23N 57°48' E 010°11'1113.5
2016-Nov-22 02:33N 57°47' E 010°32'7 2.1
2016-Nov-21 23:04N 57°40' E 010°36'0 0.0
2016-Nov-21 17:31N 57°40' E 010°36'0 0.0
2016-Nov-21 13:19N 57°40' E 010°37'0 0.0
2016-Nov-21 12:28N 57°40' E 010°37'0 0.0
2016-Nov-21 11:25N 57°40' E 010°37'0 0.0
2016-Nov-21 07:07N 57°40' E 010°37'  
Track history (hours):
 
Tides and Currents Weather Stations Pressure Air Temp Water Temp Dewpoint Dewpoint Depression Visibility Wind Speed Wind Dir Waves Ship Positions

Ivan Papanin

Last reported at 2016-Dec-01 06:11 UTC. Time now 2016-Dec-08 06:01 UTC.
Position N 13°46' W 017°45'.

Length 166 m; beam 22 m.

Type: Cargo ship. MMSI: 273137200.

Date/timePositionNaut miles runAvg speedWind from/ knotsBaromVisibWave heightAir tempDewpointWater temp
2016-Dec-01 06:11N 13°46' W 017°45'914.4
2016-Dec-01 05:34N 13°55' W 017°45'2914.4
2016-Dec-01 03:31N 14°24' W 017°46'4514.2
2016-Dec-01 00:20N 15°09' W 017°45'1114.4
2016-Nov-30 23:33N 15°21' W 017°45'  
2016-Nov-28 19:06N 27°37' W 015°12'815.1
2016-Nov-28 18:33N 27°45' W 015°09'1514.8
2016-Nov-28 17:33N 27°59' W 015°04'1514.6
2016-Nov-28 16:33N 28°13' W 014°58'1414.5
2016-Nov-28 15:33N 28°27' W 014°53'1514.6
2016-Nov-28 14:33N 28°41' W 014°49'  
2016-Nov-24 11:33N 49°46' W 003°53'1515.3
2016-Nov-24 10:34N 49°51' W 003°30'1615.6
2016-Nov-24 09:33N 49°56' W 003°07'1616.0
2016-Nov-24 08:32N 50°00' W 002°43'3015.2
2016-Nov-24 06:33N 50°09' W 001°58'1413.8
2016-Nov-24 05:33N 50°13' W 001°37'1313.3
2016-Nov-24 04:33N 50°17' W 001°17'2813.4
2016-Nov-24 02:26N 50°25' W 000°35'1314.4
2016-Nov-24 01:31N 50°29' W 000°15'1415.2
2016-Nov-24 00:33N 50°33' E 000°07'2015.5
2016-Nov-23 23:18N 50°39' E 000°36'2714.9
2016-Nov-23 21:27N 50°55' E 001°11'1213.7
2016-Nov-23 20:34N 51°03' E 001°26'1313.1
2016-Nov-23 19:33N 51°12' E 001°42'1313.5
2016-Nov-23 18:34N 51°23' E 001°54'1514.7
2016-Nov-23 17:33N 51°34' E 002°09'1615.4
2016-Nov-23 16:32N 51°46' E 002°26'4915.0
2016-Nov-23 13:18N 52°24' E 003°16'2313.5
2016-Nov-23 11:33N 52°43' E 003°38'1312.8
2016-Nov-23 10:32N 52°53' E 003°51'1312.8
2016-Nov-23 09:33N 53°01' E 004°07'1313.5
2016-Nov-23 08:33N 53°10' E 004°24'1414.1
2016-Nov-23 07:32N 53°23' E 004°32'1414.2
2016-Nov-23 06:34N 53°37' E 004°40'4013.2
2016-Nov-23 03:33N 54°14' E 005°05'1212.5
2016-Nov-23 02:33N 54°24' E 005°16'13711.0
2016-Nov-22 14:05N 56°25' E 007°13'611.6
2016-Nov-22 13:32N 56°30' E 007°19'3311.1
2016-Nov-22 10:32N 56°59' E 007°49'1111.0
2016-Nov-22 09:32N 57°09' E 007°59'1212.1
2016-Nov-22 08:33N 57°15' E 008°18'6913.3
2016-Nov-22 03:23N 57°48' E 010°11'1113.5
2016-Nov-22 02:33N 57°47' E 010°32'7 2.1
2016-Nov-21 23:04N 57°40' E 010°36'0 0.0
2016-Nov-21 17:31N 57°40' E 010°36'0 0.0
2016-Nov-21 13:19N 57°40' E 010°37'0 0.0
2016-Nov-21 12:28N 57°40' E 010°37'0 0.0
2016-Nov-21 11:25N 57°40' E 010°37'0 0.0
2016-Nov-21 07:07N 57°40' E 010°37'  

Dump ship's entire track history